createdAt,value
2022-08-03T00:00:27.472Z,100189.53
2022-08-03T00:02:54.833Z,100195.19
2022-08-03T00:05:22.255Z,100199.13
2022-08-03T00:07:49.692Z,100191.28
2022-08-03T00:10:17.022Z,100203.22
2022-08-03T00:12:44.373Z,100202.50
2022-08-03T00:15:15.064Z,100193.91
2022-08-03T00:17:52.486Z,100199.66
2022-08-03T00:20:24.226Z,100191.81
2022-08-03T00:22:51.622Z,100189.97
2022-08-03T00:25:19.346Z,100194.00
2022-08-03T00:27:47.791Z,100190.06
2022-08-03T00:30:16.846Z,100186.91
2022-08-03T00:32:45.438Z,100190.97
2022-08-03T00:35:32.589Z,100191.34
2022-08-03T00:38:00.570Z,100189.88
2022-08-03T00:40:28.258Z,100185.72
2022-08-03T00:43:03.088Z,100184.13
2022-08-03T00:45:32.059Z,100188.69
2022-08-03T00:48:00.158Z,100185.88
2022-08-03T00:50:29.227Z,100186.69
2022-08-03T00:52:57.394Z,100192.34
2022-08-03T00:55:25.022Z,100191.47
2022-08-03T00:57:52.466Z,100189.53
2022-08-03T01:00:28.724Z,100198.63
2022-08-03T01:02:56.059Z,100190.88
2022-08-03T01:05:23.692Z,100190.78
2022-08-03T01:08:20.559Z,100198.78
2022-08-03T01:11:12.188Z,100208.09
2022-08-03T01:14:01.559Z,100192.41
2022-08-03T01:16:37.186Z,100198.06
2022-08-03T01:19:07.153Z,100194.13
2022-08-03T01:21:40.491Z,100202.56
2022-08-03T01:24:43.756Z,100205.84
2022-08-03T01:27:26.827Z,100201.81
2022-08-03T01:29:54.156Z,100189.44
2022-08-03T01:32:59.469Z,100193.34
2022-08-03T01:35:13.156Z,100194.47
2022-08-03T01:38:03.381Z,100194.72
2022-08-03T01:40:32.307Z,100198.50
2022-08-03T01:43:00.434Z,100205.72
2022-08-03T01:45:28.579Z,100194.19
2022-08-03T01:48:01.961Z,100205.09
2022-08-03T01:50:29.689Z,100196.28
2022-08-03T01:52:57.930Z,100193.59
2022-08-03T01:55:28.251Z,100201.19
2022-08-03T01:58:04.678Z,100197.03
2022-08-03T02:00:32.827Z,100210.75
2022-08-03T02:03:00.766Z,100203.38
2022-08-03T02:05:28.478Z,100211.59
2022-08-03T02:07:56.727Z,100208.88
2022-08-03T02:10:35.479Z,100202.66
2022-08-03T02:13:04.048Z,100210.13
2022-08-03T02:15:32.398Z,100212.22
2022-08-03T02:18:00.570Z,100220.53
2022-08-03T02:20:28.742Z,100218.69
2022-08-03T02:22:55.995Z,100209.84
2022-08-03T02:25:23.607Z,100209.13
2022-08-03T02:27:56.558Z,100212.91
2022-08-03T02:30:28.121Z,100213.91
2022-08-03T02:32:56.015Z,100213.38
2022-08-03T02:35:25.239Z,100213.97
2022-08-03T02:37:53.401Z,100220.34
2022-08-03T02:40:22.963Z,100210.44
2022-08-03T02:42:53.488Z,100211.41
2022-08-03T02:45:21.104Z,100214.22
2022-08-03T02:47:53.797Z,100217.16
2022-08-03T02:50:23.280Z,100214.59
2022-08-03T02:52:51.276Z,100213.06
2022-08-03T02:55:19.808Z,100213.28
2022-08-03T02:57:47.633Z,100223.44
2022-08-03T03:00:28.194Z,100213.63
2022-08-03T03:03:00.547Z,100219.75
2022-08-03T03:05:53.403Z,100217.94
2022-08-03T03:08:20.607Z,100216.97
2022-08-03T03:10:48.934Z,100227.84
2022-08-03T03:13:21.144Z,100235.19
2022-08-03T03:15:49.057Z,100233.72
2022-08-03T03:18:21.874Z,100242.03
2022-08-03T03:20:50.527Z,100249.16
2022-08-03T03:23:17.986Z,100241.56
2022-08-03T03:25:45.728Z,100246.09
2022-08-03T03:28:13.003Z,100240.31
2022-08-03T03:30:40.366Z,100242.84
2022-08-03T03:33:07.806Z,100238.22
2022-08-03T03:35:38.843Z,100237.75
2022-08-03T03:38:06.938Z,100243.47
2022-08-03T03:40:37.627Z,100250.19
2022-08-03T03:43:08.344Z,100239.63
2022-08-03T03:45:35.912Z,100242.44
2022-08-03T03:48:06.560Z,100246.00
2022-08-03T03:50:34.666Z,100241.69
2022-08-03T03:53:03.099Z,100250.84
2022-08-03T03:55:30.568Z,100251.72
2022-08-03T03:57:57.818Z,100256.25
2022-08-03T04:00:25.135Z,100270.16
2022-08-03T04:02:52.465Z,100276.28
2022-08-03T04:05:39.278Z,100269.28
2022-08-03T04:08:31.613Z,100275.09
2022-08-03T04:11:07.705Z,100275.31
2022-08-03T04:13:47.485Z,100276.44
2022-08-03T04:16:16.717Z,100276.56
2022-08-03T04:18:48.448Z,100289.81
2022-08-03T04:21:18.085Z,100286.00
2022-08-03T04:23:48.437Z,100289.34
2022-08-03T04:26:18.757Z,100300.84
2022-08-03T04:28:46.739Z,100298.06
2022-08-03T04:31:14.953Z,100299.66
2022-08-03T04:33:44.128Z,100299.19
2022-08-03T04:36:14.918Z,100314.06
2022-08-03T04:39:14.853Z,100319.09
2022-08-03T04:42:04.722Z,100322.09
2022-08-03T04:44:31.803Z,100317.13
2022-08-03T04:46:59.635Z,100323.06
2022-08-03T04:49:27.400Z,100325.38
2022-08-03T04:51:54.770Z,100327.41
2022-08-03T04:54:22.067Z,100331.47
2022-08-03T04:56:49.361Z,100337.25
2022-08-03T04:59:17.885Z,100332.25
2022-08-03T05:01:45.305Z,100330.56
2022-08-03T05:04:12.756Z,100323.63
2022-08-03T05:06:48.135Z,100321.41
2022-08-03T05:09:16.109Z,100328.59
2022-08-03T05:12:03.511Z,100326.88
2022-08-03T05:14:30.770Z,100341.75
2022-08-03T05:16:58.039Z,100339.09
2022-08-03T05:19:25.322Z,100339.94
2022-08-03T05:21:53.133Z,100338.13
2022-08-03T05:24:20.422Z,100333.69
2022-08-03T05:26:47.747Z,100338.97
2022-08-03T05:29:15.020Z,100340.91
2022-08-03T05:31:42.331Z,100343.16
2022-08-03T05:34:09.626Z,100340.66
2022-08-03T05:36:36.894Z,100338.59
2022-08-03T05:39:04.185Z,100339.28
2022-08-03T05:41:37.225Z,100338.31
2022-08-03T05:44:04.954Z,100350.84
2022-08-03T05:46:32.258Z,100343.69
2022-08-03T05:48:59.587Z,100349.03
2022-08-03T05:51:27.722Z,100344.91
2022-08-03T05:53:54.985Z,100345.63
2022-08-03T05:56:24.218Z,100347.78
2022-08-03T05:58:52.542Z,100350.13
2022-08-03T06:01:22.049Z,100356.22
2022-08-03T06:03:50.179Z,100353.44
2022-08-03T06:06:17.677Z,100357.19
2022-08-03T06:08:45.541Z,100362.50
2022-08-03T06:11:13.225Z,100353.78
2022-08-03T06:13:40.812Z,100356.72
2022-08-03T06:16:08.462Z,100366.91
2022-08-03T06:18:36.229Z,100368.38
2022-08-03T06:21:14.553Z,100371.84
2022-08-03T06:23:52.852Z,100363.16
2022-08-03T06:26:23.001Z,100368.63
2022-08-03T06:28:52.482Z,100368.06
2022-08-03T06:31:32.419Z,100361.38
2022-08-03T06:34:34.182Z,100365.06
2022-08-03T06:36:51.022Z,100360.75
2022-08-03T06:39:20.086Z,100348.19
2022-08-03T06:41:47.515Z,100360.47
2022-08-03T06:44:14.777Z,100362.16
2022-08-03T06:46:43.313Z,100361.31
2022-08-03T06:49:10.702Z,100353.84
2022-08-03T06:52:03.347Z,100360.69
2022-08-03T06:54:25.311Z,100356.22
2022-08-03T06:56:52.746Z,100364.38
2022-08-03T07:00:09.680Z,100358.00
2022-08-03T07:02:07.494Z,100360.13
2022-08-03T07:04:34.790Z,100367.91
2022-08-03T07:07:02.071Z,100367.75
2022-08-03T07:09:29.319Z,100361.88
2022-08-03T07:11:57.134Z,100360.09
2022-08-03T07:14:24.431Z,100356.34
2022-08-03T07:16:51.690Z,100363.75
2022-08-03T07:19:18.970Z,100361.72
2022-08-03T07:21:47.382Z,100364.47
2022-08-03T07:24:14.683Z,100363.19
2022-08-03T07:26:41.958Z,100371.38
2022-08-03T07:29:15.064Z,100369.53
2022-08-03T07:31:42.910Z,100362.50
2022-08-03T07:34:10.204Z,100371.44
2022-08-03T07:36:37.604Z,100364.66
2022-08-03T07:39:16.010Z,100368.00
2022-08-03T07:41:45.856Z,100374.56
2022-08-03T07:44:13.371Z,100368.84
2022-08-03T07:46:40.664Z,100359.94
2022-08-03T07:49:07.987Z,100363.72
2022-08-03T07:51:35.370Z,100370.78
2022-08-03T07:54:02.774Z,100361.13
2022-08-03T07:56:30.091Z,100363.63
2022-08-03T07:58:57.418Z,100373.72
2022-08-03T08:01:24.805Z,100370.16
2022-08-03T08:03:53.244Z,100376.66
2022-08-03T08:06:21.648Z,100371.09
2022-08-03T08:08:48.919Z,100372.34
2022-08-03T08:11:16.344Z,100366.41
2022-08-03T08:13:43.595Z,100370.50
2022-08-03T08:16:10.910Z,100361.31
2022-08-03T08:18:38.182Z,100368.00
2022-08-03T08:21:05.431Z,100368.16
2022-08-03T08:23:42.531Z,100363.53
2022-08-03T08:26:10.979Z,100363.88
2022-08-03T08:28:38.444Z,100370.06
2022-08-03T08:31:05.700Z,100364.22
2022-08-03T08:34:02.564Z,100366.94
2022-08-03T08:36:22.005Z,100362.00
2022-08-03T08:38:49.357Z,100366.91
2022-08-03T08:41:17.242Z,100363.97
2022-08-03T08:43:44.500Z,100358.50
2022-08-03T08:46:12.358Z,100356.72
2022-08-03T08:48:41.506Z,100342.16
2022-08-03T08:51:09.826Z,100343.94
2022-08-03T08:53:38.331Z,100342.81
2022-08-03T08:56:06.642Z,100345.69
2022-08-03T08:58:35.162Z,100350.44
2022-08-03T09:01:02.530Z,100345.81
2022-08-03T09:03:30.947Z,100342.41
2022-08-03T09:05:59.775Z,100345.69
2022-08-03T09:08:27.043Z,100338.38
2022-08-03T09:10:54.393Z,100338.53
2022-08-03T09:13:21.917Z,100329.63
2022-08-03T09:16:01.306Z,100331.91
2022-08-03T09:18:30.541Z,100334.88
2022-08-03T09:21:33.602Z,100328.00
2022-08-03T09:24:04.108Z,100326.31
2022-08-03T09:26:34.280Z,100330.59
2022-08-03T09:29:14.897Z,100331.81
2022-08-03T09:31:45.318Z,100326.63
2022-08-03T09:34:14.255Z,100326.84
2022-08-03T09:36:41.619Z,100329.56
2022-08-03T09:39:13.594Z,100313.84
2022-08-03T09:41:41.863Z,100315.00
2022-08-03T09:44:09.503Z,100307.03
2022-08-03T09:46:53.216Z,100306.25
2022-08-03T09:49:20.536Z,100305.69
2022-08-03T09:52:31.676Z,100304.91
2022-08-03T09:54:35.457Z,100296.78
2022-08-03T09:57:02.991Z,100304.53
2022-08-03T09:59:31.329Z,100292.19
2022-08-03T10:02:02.294Z,100298.69
2022-08-03T10:04:29.553Z,100294.53
2022-08-03T10:07:05.566Z,100288.19
2022-08-03T10:09:33.194Z,100292.25
2022-08-03T10:12:11.210Z,100277.25
2022-08-03T10:14:39.310Z,100278.97
2022-08-03T10:17:06.799Z,100269.88
2022-08-03T10:19:34.090Z,100280.88
2022-08-03T10:22:03.870Z,100272.63
2022-08-03T10:24:34.228Z,100263.63
2022-08-03T10:27:03.609Z,100268.72
2022-08-03T10:29:33.757Z,100261.09
2022-08-03T10:32:01.843Z,100260.38
2022-08-03T10:34:34.019Z,100255.16
2022-08-03T10:37:03.438Z,100258.47
2022-08-03T10:39:31.058Z,100251.53
2022-08-03T10:42:00.053Z,100247.75
2022-08-03T10:44:33.402Z,100238.25
2022-08-03T10:47:00.965Z,100238.94
2022-08-03T10:49:35.138Z,100242.16
2022-08-03T10:52:13.793Z,100240.50
2022-08-03T10:55:10.748Z,100235.81
2022-08-03T10:57:58.244Z,100230.94
2022-08-03T11:00:27.539Z,100231.66
2022-08-03T11:03:06.620Z,100222.97
2022-08-03T11:05:41.725Z,100215.16
2022-08-03T11:08:28.523Z,100219.59
2022-08-03T11:10:57.333Z,100200.09
2022-08-03T11:13:25.786Z,100200.13
2022-08-03T11:15:54.125Z,100206.03
2022-08-03T11:18:29.652Z,100200.94
2022-08-03T11:20:58.032Z,100190.25
2022-08-03T11:24:04.631Z,100183.91
2022-08-03T11:26:34.494Z,100192.22
2022-08-03T11:29:21.171Z,100188.59
2022-08-03T11:31:50.861Z,100189.47
2022-08-03T11:34:19.023Z,100183.53
2022-08-03T11:37:04.914Z,100176.31
2022-08-03T11:39:43.607Z,100173.19
2022-08-03T11:42:30.883Z,100165.38
2022-08-03T11:44:58.732Z,100171.09
2022-08-03T11:47:27.342Z,100163.66
2022-08-03T11:49:58.996Z,100154.34
2022-08-03T11:52:28.688Z,100154.34
2022-08-03T11:54:57.126Z,100156.88
2022-08-03T11:59:10.891Z,100148.84
2022-08-03T12:00:28.776Z,100151.59
2022-08-03T12:03:07.427Z,100145.84
2022-08-03T12:05:35.886Z,100152.19
2022-08-03T12:08:06.605Z,100148.81
2022-08-03T12:10:34.982Z,100145.44
2022-08-03T12:13:02.890Z,100139.94
2022-08-03T12:15:31.070Z,100136.72
2022-08-03T12:17:58.401Z,100131.63
2022-08-03T12:20:34.544Z,100126.13
2022-08-03T12:23:04.306Z,100128.66
2022-08-03T12:25:39.670Z,100120.75
2022-08-03T12:28:37.171Z,100124.78
2022-08-03T12:31:02.714Z,100131.22
2022-08-03T12:33:30.043Z,100130.38
2022-08-03T12:36:08.010Z,100128.00
2022-08-03T12:38:36.550Z,100116.75
2022-08-03T12:41:16.701Z,100120.75
2022-08-03T12:43:50.235Z,100131.13
2022-08-03T12:46:18.817Z,100128.13
2022-08-03T12:48:58.384Z,100131.31
2022-08-03T12:51:27.461Z,100131.56
2022-08-03T12:53:55.314Z,100128.13
2022-08-03T12:56:22.805Z,100134.75
2022-08-03T12:58:53.272Z,100133.97
2022-08-03T13:01:22.612Z,100127.09
2022-08-03T13:03:53.224Z,100118.81
2022-08-03T13:06:22.132Z,100119.41
2022-08-03T13:08:49.694Z,100120.41
2022-08-03T13:11:21.236Z,100121.22
2022-08-03T13:13:48.797Z,100135.06
2022-08-03T13:16:19.390Z,100130.72
2022-08-03T13:18:47.175Z,100128.53
2022-08-03T13:21:16.137Z,100125.88
2022-08-03T13:23:43.867Z,100123.28
2022-08-03T13:26:11.918Z,100117.22
2022-08-03T13:28:39.534Z,100118.38
2022-08-03T13:31:07.114Z,100107.03
2022-08-03T13:33:34.480Z,100109.66
2022-08-03T13:36:01.769Z,100104.03
2022-08-03T13:38:29.154Z,100099.72
2022-08-03T13:40:56.454Z,100101.78
2022-08-03T13:43:23.986Z,100112.88
2022-08-03T13:45:54.855Z,100130.13
2022-08-03T13:48:37.670Z,100122.06
2022-08-03T13:51:11.829Z,100114.09
2022-08-03T13:53:50.904Z,100117.25
2022-08-03T13:56:18.275Z,100113.63
2022-08-03T13:58:45.574Z,100104.09
2022-08-03T14:01:12.965Z,100101.34
2022-08-03T14:03:40.238Z,100096.38
2022-08-03T14:06:07.494Z,100099.44
2022-08-03T14:08:34.886Z,100086.91
2022-08-03T14:11:02.174Z,100086.91
2022-08-03T14:13:29.471Z,100089.78
2022-08-03T14:15:56.755Z,100092.66
2022-08-03T14:18:27.961Z,100093.44
2022-08-03T14:21:05.031Z,100093.59
2022-08-03T14:23:33.502Z,100089.25
2022-08-03T14:26:01.152Z,100097.03
2022-08-03T14:28:28.722Z,100089.91
2022-08-03T14:30:56.307Z,100089.47
2022-08-03T14:33:23.818Z,100084.56
2022-08-03T14:35:51.907Z,100084.94
2022-08-03T14:38:19.532Z,100077.34
2022-08-03T14:40:47.215Z,100074.16
2022-08-03T14:43:14.662Z,100078.03
2022-08-03T14:45:42.053Z,100092.41
2022-08-03T14:50:33.887Z,100082.38
2022-08-03T14:50:56.905Z,100082.19
2022-08-03T14:53:24.521Z,100090.03
2022-08-03T14:55:53.328Z,100086.63
2022-08-03T14:58:22.187Z,100074.41
2022-08-03T15:00:51.013Z,100081.72
2022-08-03T15:03:23.842Z,100082.97
2022-08-03T15:05:52.078Z,100081.94
2022-08-03T15:08:19.764Z,100080.63
2022-08-03T15:10:47.127Z,100087.03
2022-08-03T15:13:17.512Z,100085.63
2022-08-03T15:15:44.890Z,100087.78
2022-08-03T15:18:12.158Z,100080.00
2022-08-03T15:20:44.827Z,100077.28
2022-08-03T15:23:14.582Z,100077.28
2022-08-03T15:26:29.209Z,100077.47
2022-08-03T15:28:30.299Z,100073.31
2022-08-03T15:30:57.860Z,100074.88
2022-08-03T15:33:25.190Z,100062.47
2022-08-03T15:35:53.355Z,100062.06
2022-08-03T15:38:23.012Z,100056.75
2022-08-03T15:40:56.829Z,100055.06
2022-08-03T15:43:24.137Z,100061.09
2022-08-03T15:46:18.927Z,100061.88
2022-08-03T15:48:39.369Z,100053.16
2022-08-03T15:51:07.113Z,100054.19
2022-08-03T15:53:34.826Z,100059.34
2022-08-03T15:56:09.719Z,100047.28
2022-08-03T15:59:11.352Z,100049.78
2022-08-03T16:01:26.490Z,100052.91
2022-08-03T16:03:54.028Z,100054.03
2022-08-03T16:06:35.549Z,100050.50
2022-08-03T16:09:24.262Z,100055.66
2022-08-03T16:11:54.929Z,100052.09
2022-08-03T16:14:34.854Z,100055.19
2022-08-03T16:17:07.650Z,100051.06
2022-08-03T16:19:35.501Z,100056.22
2022-08-03T16:22:03.243Z,100060.63
2022-08-03T16:24:30.719Z,100047.75
2022-08-03T16:27:00.833Z,100048.78
2022-08-03T16:29:28.583Z,100049.56
2022-08-03T16:31:55.923Z,100049.88
2022-08-03T16:34:23.352Z,100057.34
2022-08-03T16:36:52.516Z,100046.31
2022-08-03T16:39:19.846Z,100043.94
2022-08-03T16:41:54.208Z,100044.97
2022-08-03T16:44:29.505Z,100042.44
2022-08-03T16:46:56.987Z,100046.56
2022-08-03T16:49:54.322Z,100050.97
2022-08-03T16:52:12.987Z,100048.66
2022-08-03T16:54:40.750Z,100048.91
2022-08-03T16:57:08.542Z,100040.31
2022-08-03T16:59:36.954Z,100046.72
2022-08-03T17:02:10.032Z,100048.47
2022-08-03T17:04:40.091Z,100048.84
2022-08-03T17:07:08.704Z,100059.25
2022-08-03T17:09:38.230Z,100055.91
2022-08-03T17:12:07.180Z,100056.75
2022-08-03T17:14:34.729Z,100054.31
2022-08-03T17:17:04.107Z,100054.34
2022-08-03T17:19:32.568Z,100059.97
2022-08-03T17:22:01.532Z,100058.31
2022-08-03T17:24:40.796Z,100062.84
2022-08-03T17:28:42.079Z,100062.25
2022-08-03T17:30:01.009Z,100070.47
2022-08-03T17:32:31.825Z,100065.03
2022-08-03T17:34:59.363Z,100061.13
2022-08-03T17:37:57.454Z,100070.28
2022-08-03T17:40:17.432Z,100066.03
2022-08-03T17:42:50.818Z,100074.13
2022-08-03T17:45:18.783Z,100071.22
2022-08-03T17:47:57.397Z,100070.22
2022-08-03T17:50:28.827Z,100078.41
2022-08-03T17:53:07.429Z,100071.50
2022-08-03T17:55:57.652Z,100077.00
2022-08-03T17:58:54.651Z,100072.38
2022-08-03T18:02:08.974Z,100073.31
2022-08-03T18:04:42.371Z,100077.94
2022-08-03T18:07:12.496Z,100078.75
2022-08-03T18:10:06.214Z,100078.53
2022-08-03T18:12:43.231Z,100088.00
2022-08-03T18:15:21.252Z,100086.50
2022-08-03T18:17:58.070Z,100092.22
2022-08-03T18:20:32.793Z,100094.53
2022-08-03T18:23:08.853Z,100093.91
2022-08-03T18:25:45.716Z,100101.31
2022-08-03T18:28:18.503Z,100094.34
2022-08-03T18:31:07.109Z,100100.88
2022-08-03T18:34:18.689Z,100103.25
2022-08-03T18:36:30.018Z,100116.13
2022-08-03T18:39:12.581Z,100118.88
2022-08-03T18:41:44.602Z,100115.13
2022-08-03T18:44:37.313Z,100111.75
2022-08-03T18:47:16.405Z,100111.97
2022-08-03T18:50:02.603Z,100117.59
2022-08-03T18:52:35.049Z,100114.34
2022-08-03T18:55:32.970Z,100114.38
2022-08-03T18:58:30.830Z,100123.75
2022-08-03T19:02:00.069Z,100130.91
2022-08-03T19:04:14.026Z,100133.81
2022-08-03T19:06:45.462Z,100135.63
2022-08-03T19:09:20.626Z,100134.94
2022-08-03T19:12:12.302Z,100143.81
2022-08-03T19:14:42.478Z,100136.28
2022-08-03T19:17:10.987Z,100148.75
2022-08-03T19:19:44.543Z,100143.78
2022-08-03T19:22:16.171Z,100142.56
2022-08-03T19:24:45.286Z,100142.41
2022-08-03T19:27:13.356Z,100148.66
2022-08-03T19:29:58.526Z,100149.47
2022-08-03T19:32:28.937Z,100145.00
2022-08-03T19:34:57.123Z,100149.38
2022-08-03T19:37:33.270Z,100149.00
2022-08-03T19:40:10.209Z,100159.56
2022-08-03T19:42:42.536Z,100155.59
2022-08-03T19:45:14.423Z,100167.00
2022-08-03T19:47:47.504Z,100160.16
2022-08-03T19:50:16.146Z,100158.91
2022-08-03T19:52:46.167Z,100154.31
2022-08-03T19:55:15.249Z,100159.00
2022-08-03T19:57:43.906Z,100162.34
2022-08-03T20:00:13.897Z,100151.94
2022-08-03T20:02:41.443Z,100166.84
2022-08-03T20:05:15.456Z,100158.63
2022-08-03T20:07:47.776Z,100159.25
2022-08-03T20:10:16.691Z,100153.28
2022-08-03T20:12:44.637Z,100157.19
2022-08-03T20:15:12.060Z,100166.53
2022-08-03T20:17:55.203Z,100162.94
2022-08-03T20:20:26.118Z,100165.44
2022-08-03T20:22:57.611Z,100160.63
2022-08-03T20:25:37.577Z,100169.41
2022-08-03T20:28:18.810Z,100168.47
2022-08-03T20:30:54.095Z,100174.38
2022-08-03T20:33:34.618Z,100174.69
2022-08-03T20:36:08.793Z,100171.44
2022-08-03T20:38:43.629Z,100183.31
2022-08-03T20:41:15.162Z,100176.31
2022-08-03T20:43:42.478Z,100174.88
2022-08-03T20:46:32.715Z,100181.63
2022-08-03T20:48:58.949Z,100178.66
2022-08-03T20:51:49.073Z,100174.72
2022-08-03T20:54:17.611Z,100176.03
2022-08-03T20:56:58.257Z,100171.75
2022-08-03T20:59:38.457Z,100171.19
2022-08-03T21:02:19.528Z,100175.22
2022-08-03T21:04:55.995Z,100175.22
2022-08-03T21:07:24.047Z,100181.84
2022-08-03T21:09:53.003Z,100181.28
2022-08-03T21:12:43.053Z,100180.72
2022-08-03T21:15:10.801Z,100182.34
2022-08-03T21:18:00.019Z,100183.63
2022-08-03T21:20:30.113Z,100192.97
2022-08-03T21:22:58.164Z,100188.13
2022-08-03T21:25:29.696Z,100187.41
2022-08-03T21:27:57.374Z,100190.00
2022-08-03T21:30:25.839Z,100190.44
2022-08-03T21:32:54.407Z,100195.31
2022-08-03T21:35:24.129Z,100194.88
2022-08-03T21:38:09.754Z,100199.75
2022-08-03T21:40:37.618Z,100191.34
2022-08-03T21:43:04.917Z,100205.38
2022-08-03T21:45:35.326Z,100203.50
2022-08-03T21:48:08.846Z,100209.75
2022-08-03T21:50:36.402Z,100204.63
2022-08-03T21:53:03.850Z,100210.66
2022-08-03T21:55:32.359Z,100222.38
2022-08-03T21:58:03.230Z,100216.53
2022-08-03T22:00:30.515Z,100225.56
2022-08-03T22:02:58.450Z,100210.84
2022-08-03T22:05:42.832Z,100226.72
2022-08-03T22:08:14.230Z,100224.72
2022-08-03T22:10:43.501Z,100227.72
2022-08-03T22:13:11.909Z,100228.59
2022-08-03T22:15:39.231Z,100224.75
2022-08-03T22:18:06.554Z,100222.63
2022-08-03T22:20:33.829Z,100223.19
2022-08-03T22:23:02.535Z,100237.03
2022-08-03T22:25:34.982Z,100240.03
2022-08-03T22:28:04.263Z,100237.59
2022-08-03T22:30:33.035Z,100239.59
2022-08-03T22:33:01.367Z,100239.88
2022-08-03T22:35:30.538Z,100242.59
2022-08-03T22:37:58.558Z,100240.75
2022-08-03T22:40:26.407Z,100243.56
2022-08-03T22:42:54.447Z,100236.00
2022-08-03T22:46:08.014Z,100240.00
2022-08-03T22:48:10.307Z,100244.28
2022-08-03T22:50:38.375Z,100245.72
2022-08-03T22:53:06.554Z,100237.88
2022-08-03T22:55:34.038Z,100246.13
2022-08-03T22:58:01.324Z,100247.00
2022-08-03T23:00:28.613Z,100239.84
2022-08-03T23:02:56.929Z,100245.44
2022-08-03T23:06:00.304Z,100242.00
2022-08-03T23:08:18.908Z,100238.28
2022-08-03T23:10:47.479Z,100242.41
2022-08-03T23:13:16.596Z,100240.09
2022-08-03T23:15:49.762Z,100242.38
2022-08-03T23:18:19.058Z,100238.53
2022-08-03T23:20:49.231Z,100235.47
2022-08-03T23:23:19.913Z,100245.16
2022-08-03T23:25:49.706Z,100242.13
2022-08-03T23:28:17.458Z,100240.81
2022-08-03T23:30:45.395Z,100245.78
2022-08-03T23:33:16.416Z,100241.75
2022-08-03T23:36:27.677Z,100233.03
2022-08-03T23:38:48.351Z,100239.72
2022-08-03T23:41:17.641Z,100235.59
2022-08-03T23:43:53.869Z,100237.84
2022-08-03T23:46:22.618Z,100242.66
2022-08-03T23:48:50.399Z,100230.38
2022-08-03T23:51:37.905Z,100242.34
2022-08-03T23:54:29.734Z,100239.19
2022-08-03T23:56:59.992Z,100236.63
2022-08-03T23:59:32.132Z,100236.50
